Harwood, Texas
Current Conditions -  °F | °C
As of 2:15 PM on Sunday 25 Jan 2015 (Local Time) from KT20 Reporting Station
Clear Clear  
Wind Chill: 70°   Ceiling: Unl
Heat Index: 70°   Visibility: 10mi
Dew Point: 44°   Wind: 6mph
Humidity: 38%   Direction: 340°NNW
Pressure: 30.09"   Gusts: NA
Location:  29.67°N, 97.51°W
Report Text: KT20 252015Z AUTO 34005KT 10SM CLR 21/06 A3009 RMK AO2 T02110064
Loading
Personal Weather Stations






























Interactive Weather Map New forecast layout! Learn more

10-Day Weather Forecast

Advertisements
Track Severe Weather on mobile